Time;durP1;ratioP1;P1;durP2;ratioP2;P2;SDS_P1;SDS_P2;PMS_P1;PMS_P2;Temp;Humidity;BMP_temperature;BMP_pressure;BME280_temperature;BME280_humidity;BME280_pressure;Samples;Min_cycle;Max_cycle;Signal;HPM_P1;HPM_P2
2023/11/12 00:01:10;;;;;;;5.90;4.57;;;9.60;99.90;;;;;;5096895;28;20494;-89
2023/11/12 00:03:36;;;;;;;5.68;3.92;;;9.60;99.90;;;;;;5075643;28;20029;-87
2023/11/12 00:06:02;;;;;;;5.95;4.63;;;9.60;99.90;;;;;;5076058;28;20031;-88
2023/11/12 00:08:27;;;;;;;5.90;4.47;;;9.60;99.90;;;;;;5087488;28;20028;-88
2023/11/12 00:10:53;;;;;;;7.00;4.50;;;9.60;99.90;;;;;;5094766;28;20116;-88
2023/11/12 00:13:20;;;;;;;7.40;4.97;;;9.60;99.90;;;;;;5066339;28;20056;-87
2023/11/12 00:15:45;;;;;;;5.55;4.72;;;9.60;99.90;;;;;;5083928;28;20115;-88
2023/11/12 00:18:11;;;;;;;5.63;4.63;;;9.60;99.90;;;;;;5079688;28;20131;-88
2023/11/12 00:20:37;;;;;;;6.03;4.65;;;9.50;99.90;;;;;;5079095;28;20551;-88
2023/11/12 00:23:02;;;;;;;8.25;4.93;;;9.60;99.90;;;;;;5096077;28;20484;-89
2023/11/12 00:25:28;;;;;;;6.95;4.93;;;9.60;99.90;;;;;;5095939;28;20036;-89
2023/11/12 00:27:54;;;;;;;7.00;5.07;;;9.60;99.90;;;;;;5085161;28;20372;-88
2023/11/12 00:30:20;;;;;;;6.82;4.63;;;9.50;99.90;;;;;;5092353;28;20017;-88
2023/11/12 00:32:46;;;;;;;7.10;4.90;;;9.50;99.90;;;;;;5082646;28;20046;-86
2023/11/12 00:35:12;;;;;;;7.80;4.95;;;9.50;99.90;;;;;;5113067;28;20012;-87
2023/11/12 00:37:38;;;;;;;8.15;5.00;;;9.60;99.90;;;;;;5120515;28;20057;-88
2023/11/12 00:40:05;;;;;;;5.82;4.85;;;9.50;99.90;;;;;;5107280;28;20087;-87
2023/11/12 00:42:31;;;;;;;7.47;5.10;;;9.50;99.90;;;;;;5096147;28;20028;-88
2023/11/12 00:44:58;;;;;;;6.95;5.25;;;9.50;99.90;;;;;;5080195;28;20036;-89
2023/11/12 00:47:23;;;;;;;7.07;5.00;;;9.50;99.90;;;;;;5078141;28;20115;-88
2023/11/12 00:49:49;;;;;;;6.95;4.90;;;9.50;99.90;;;;;;5060881;28;20060;-87
2023/11/12 00:52:16;;;;;;;7.70;5.57;;;9.50;99.90;;;;;;5096310;28;20052;-88
2023/11/12 00:54:41;;;;;;;7.57;5.40;;;9.40;99.90;;;;;;5096560;28;20510;-88
2023/11/12 00:57:07;;;;;;;5.78;5.03;;;9.40;99.90;;;;;;5078356;28;20055;-89
2023/11/12 00:59:35;;;;;;;8.20;5.30;;;9.40;99.90;;;;;;5096117;28;20028;-88
2023/11/12 01:02:01;;;;;;;5.65;4.85;;;9.30;99.90;;;;;;5079590;28;20020;-88
2023/11/12 01:04:27;;;;;;;6.82;5.15;;;9.30;99.90;;;;;;5075659;28;20490;-88
2023/11/12 01:06:53;;;;;;;6.32;5.15;;;9.20;99.90;;;;;;5074806;28;20039;-88
2023/11/12 01:09:18;;;;;;;6.40;5.15;;;9.20;99.90;;;;;;5074821;28;20029;-89
2023/11/12 01:11:44;;;;;;;6.75;5.32;;;9.20;99.90;;;;;;5074810;28;20032;-88
2023/11/12 01:14:13;;;;;;;7.38;4.85;;;9.20;99.90;;;;;;5058210;28;20025;-88
2023/11/12 01:16:38;;;;;;;7.97;5.90;;;9.20;99.90;;;;;;5090268;28;20048;-88
2023/11/12 01:19:05;;;;;;;7.28;5.10;;;9.10;99.90;;;;;;5077645;28;20398;-87
2023/11/12 01:21:30;;;;;;;8.13;5.57;;;9.00;99.90;;;;;;5088739;28;20020;-88
2023/11/12 01:23:56;;;;;;;9.63;5.70;;;9.00;99.90;;;;;;5074012;28;20028;-88
2023/11/12 01:26:24;;;;;;;9.02;5.57;;;9.00;99.90;;;;;;5060905;28;20039;-88
2023/11/12 01:28:49;;;;;;;7.47;5.68;;;9.00;99.90;;;;;;5077861;28;20479;-88
2023/11/12 01:31:15;;;;;;;6.75;5.30;;;8.90;99.90;;;;;;5077398;28;20052;-88
2023/11/12 01:33:41;;;;;;;7.75;5.55;;;8.90;99.90;;;;;;5093608;28;20024;-88
2023/11/12 01:36:06;;;;;;;9.57;5.63;;;8.90;99.90;;;;;;5077178;28;20067;-88
2023/11/12 01:38:33;;;;;;;8.63;5.90;;;8.80;99.90;;;;;;5065504;28;20025;-89
2023/11/12 01:41:03;;;;;;;6.10;5.22;;;8.90;99.90;;;;;;5084024;28;20063;-88
2023/11/12 01:43:30;;;;;;;10.18;5.88;;;8.80;99.90;;;;;;5074526;28;20096;-88
2023/11/12 01:45:57;;;;;;;8.85;6.10;;;8.80;99.90;;;;;;5076097;28;20025;-89
2023/11/12 01:48:23;;;;;;;7.13;5.68;;;8.70;99.90;;;;;;5075995;28;20032;-87
2023/11/12 01:50:50;;;;;;;7.57;5.93;;;8.70;99.90;;;;;;5089894;28;20032;-87
2023/11/12 01:53:17;;;;;;;7.00;5.32;;;8.70;99.90;;;;;;5074072;28;20138;-88
2023/11/12 01:55:46;;;;;;;9.38;5.60;;;8.70;99.90;;;;;;5076766;28;20028;-88
2023/11/12 01:58:13;;;;;;;8.90;5.47;;;8.60;99.90;;;;;;5094470;28;20035;-88
2023/11/12 02:00:39;;;;;;;8.10;6.13;;;8.70;99.90;;;;;;5082324;28;20036;-88
2023/11/12 02:03:09;;;;;;;8.40;5.90;;;8.70;99.90;;;;;;5090003;28;20071;-89
2023/11/12 02:05:36;;;;;;;6.75;5.40;;;8.60;99.90;;;;;;5115575;28;20001;-88
2023/11/12 02:08:05;;;;;;;6.50;5.80;;;8.60;99.90;;;;;;5117902;28;20004;-90
2023/11/12 02:10:35;;;;;;;7.28;6.00;;;8.60;99.90;;;;;;5115365;28;20024;-90
2023/11/12 02:13:02;;;;;;;8.10;5.77;;;8.60;99.90;;;;;;5081836;28;20035;-88
2023/11/12 02:15:28;;;;;;;8.52;5.85;;;8.60;99.90;;;;;;5073103;28;20040;-89
2023/11/12 02:17:53;;;;;;;7.88;5.60;;;8.60;99.90;;;;;;5077327;28;20174;-88
2023/11/12 02:20:20;;;;;;;7.25;6.30;;;8.60;99.90;;;;;;5093702;28;20024;-89
2023/11/12 02:22:46;;;;;;;7.18;5.97;;;8.60;99.90;;;;;;5093878;28;20111;-88
2023/11/12 02:25:13;;;;;;;9.65;6.10;;;8.60;99.90;;;;;;5093623;28;20055;-89
2023/11/12 02:27:39;;;;;;;8.70;6.60;;;8.60;99.90;;;;;;5075559;28;20036;-88
2023/11/12 02:30:08;;;;;;;9.27;6.45;;;8.60;99.90;;;;;;5094342;28;20028;-88
2023/11/12 02:32:34;;;;;;;9.77;6.72;;;8.70;99.90;;;;;;5093786;28;20024;-88
2023/11/12 02:35:02;;;;;;;9.20;6.45;;;8.70;99.90;;;;;;5093591;28;20116;-88
2023/11/12 02:37:28;;;;;;;9.70;6.63;;;8.70;99.90;;;;;;5074849;28;20066;-89
2023/11/12 02:39:54;;;;;;;8.13;6.90;;;8.70;99.90;;;;;;5073259;28;20017;-88
2023/11/12 02:42:21;;;;;;;9.27;6.82;;;8.70;99.90;;;;;;5082625;28;20032;-89
2023/11/12 02:44:47;;;;;;;10.15;6.95;;;8.70;99.90;;;;;;5076658;28;20024;-88
2023/11/12 02:47:13;;;;;;;9.93;7.65;;;8.70;99.90;;;;;;5076441;28;20386;-89
2023/11/12 02:50:13;;;;;;;8.73;7.30;;;8.80;99.90;;;;;;5076378;28;20035;-90
2023/11/12 02:52:38;;;;;;;9.85;7.35;;;8.80;99.90;;;;;;5090804;28;20048;-88
2023/11/12 02:55:04;;;;;;;9.77;7.47;;;8.80;99.90;;;;;;5068949;28;20020;-87
2023/11/12 02:57:30;;;;;;;10.20;8.18;;;8.80;99.90;;;;;;5090046;28;20032;-89
2023/11/12 02:59:56;;;;;;;12.02;8.68;;;8.80;99.90;;;;;;5093274;28;20032;-89
2023/11/12 03:02:22;;;;;;;9.88;8.20;;;8.80;99.90;;;;;;5091836;28;20029;-88
2023/11/12 03:04:49;;;;;;;11.85;8.82;;;8.80;99.90;;;;;;5082609;28;20055;-88
2023/11/12 03:07:15;;;;;;;13.27;9.02;;;8.90;99.90;;;;;;5077372;28;20029;-89
2023/11/12 03:09:40;;;;;;;11.35;8.35;;;8.90;99.90;;;;;;5077064;28;20036;-89
2023/11/12 03:12:06;;;;;;;11.80;8.82;;;8.90;99.90;;;;;;5072762;28;20032;-88
2023/11/12 03:14:33;;;;;;;12.80;9.50;;;8.80;99.90;;;;;;5073068;28;20124;-88
2023/11/12 03:16:59;;;;;;;10.57;9.27;;;8.80;99.90;;;;;;5073246;28;20029;-88
2023/11/12 03:19:25;;;;;;;11.68;9.30;;;8.80;99.90;;;;;;5072922;28;20025;-88
2023/11/12 03:21:52;;;;;;;14.93;10.45;;;8.80;99.90;;;;;;5085931;28;20020;-89
2023/11/12 03:24:22;;;;;;;14.80;11.05;;;8.80;99.90;;;;;;5087048;28;20031;-89
2023/11/12 03:26:50;;;;;;;13.23;10.45;;;8.80;99.90;;;;;;5090457;28;20120;-89
2023/11/12 03:29:17;;;;;;;14.45;11.65;;;8.80;99.90;;;;;;5095464;28;20053;-88
2023/11/12 03:31:44;;;;;;;15.82;10.88;;;8.80;99.90;;;;;;5117362;28;20008;-89
2023/11/12 03:34:13;;;;;;;17.98;11.95;;;8.80;99.90;;;;;;5116003;28;20035;-87
2023/11/12 03:36:39;;;;;;;15.35;11.93;;;8.80;99.90;;;;;;5096980;28;20044;-89
2023/11/12 03:39:08;;;;;;;17.52;12.43;;;8.70;99.90;;;;;;5100855;28;20026;-89
2023/11/12 03:41:34;;;;;;;15.85;12.30;;;8.70;99.90;;;;;;5065265;28;20062;-88
2023/11/12 03:44:00;;;;;;;16.90;12.65;;;8.70;99.90;;;;;;5094097;28;20028;-88
2023/11/12 03:46:26;;;;;;;17.50;12.65;;;8.70;99.90;;;;;;5058750;28;20040;-88
2023/11/12 03:48:51;;;;;;;16.77;12.65;;;8.70;99.90;;;;;;5062183;28;20479;-88
2023/11/12 03:51:17;;;;;;;19.67;13.25;;;8.70;99.90;;;;;;5072389;28;20056;-88
2023/11/12 03:53:42;;;;;;;15.98;12.63;;;8.60;99.90;;;;;;5056128;28;20024;-87
2023/11/12 03:56:11;;;;;;;17.77;13.48;;;8.70;99.90;;;;;;5073471;28;20029;-88
2023/11/12 03:58:37;;;;;;;16.80;13.45;;;8.70;99.90;;;;;;5076163;28;20034;-89
2023/11/12 04:01:04;;;;;;;17.38;13.00;;;8.70;99.90;;;;;;5083670;28;20446;-87
2023/11/12 04:03:29;;;;;;;21.50;13.77;;;8.60;99.90;;;;;;5076645;28;20431;-88
2023/11/12 04:05:55;;;;;;;19.40;13.32;;;8.70;99.90;;;;;;5081288;28;20031;-89
2023/11/12 04:08:21;;;;;;;19.92;13.55;;;8.70;99.90;;;;;;5075933;28;20464;-89
2023/11/12 04:10:46;;;;;;;16.15;12.65;;;8.70;99.90;;;;;;5093886;28;20043;-88
2023/11/12 04:13:12;;;;;;;20.02;12.90;;;8.70;99.90;;;;;;5078963;28;20028;-88
2023/11/12 04:15:38;;;;;;;18.48;12.27;;;8.70;99.90;;;;;;5079238;28;20027;-89
2023/11/12 04:18:04;;;;;;;16.63;12.57;;;8.70;99.90;;;;;;5097118;28;20035;-88
2023/11/12 04:20:32;;;;;;;17.08;11.70;;;8.70;99.90;;;;;;5077133;28;20024;-89
2023/11/12 04:22:58;;;;;;;14.90;12.40;;;8.70;99.90;;;;;;5076014;28;20032;-88
2023/11/12 04:25:24;;;;;;;16.42;11.60;;;8.70;99.90;;;;;;5091639;28;20024;-89
2023/11/12 04:27:50;;;;;;;15.85;12.23;;;8.70;99.90;;;;;;5095837;28;20012;-88
2023/11/12 04:30:17;;;;;;;14.07;11.50;;;8.80;99.90;;;;;;5096090;28;20031;-89
2023/11/12 04:32:44;;;;;;;17.50;12.25;;;8.80;99.90;;;;;;5093429;28;20020;-88
2023/11/12 04:35:11;;;;;;;15.60;11.30;;;8.80;99.90;;;;;;5089676;28;20035;-88
2023/11/12 04:37:37;;;;;;;14.48;11.63;;;8.80;99.90;;;;;;5079141;28;20491;-89
2023/11/12 04:40:06;;;;;;;14.52;11.48;;;8.80;99.90;;;;;;5078767;28;20406;-87
2023/11/12 04:42:32;;;;;;;15.77;11.73;;;8.70;99.90;;;;;;5096496;28;20028;-89
2023/11/12 04:44:58;;;;;;;16.83;12.25;;;8.70;99.90;;;;;;5079137;28;20034;-87
2023/11/12 04:47:24;;;;;;;12.73;11.18;;;8.70;99.90;;;;;;5092422;28;20123;-88
2023/11/12 04:49:51;;;;;;;16.25;12.10;;;8.70;99.90;;;;;;5079157;28;20059;-88
2023/11/12 04:52:17;;;;;;;15.15;11.30;;;8.70;99.90;;;;;;5078850;28;20044;-88
2023/11/12 04:54:50;;;;;;;15.70;11.55;;;8.70;99.90;;;;;;5079389;28;20082;-88
2023/11/12 04:57:16;;;;;;;17.45;11.50;;;8.70;99.90;;;;;;5096394;28;20383;-88
2023/11/12 04:59:42;;;;;;;15.38;11.65;;;8.70;99.90;;;;;;5103922;28;20096;-87
2023/11/12 05:02:12;;;;;;;13.48;11.68;;;8.70;99.90;;;;;;5114352;28;20031;-88
2023/11/12 05:04:38;;;;;;;17.77;12.60;;;8.70;99.90;;;;;;5108860;28;20036;-88
2023/11/12 05:07:05;;;;;;;14.75;12.27;;;8.70;99.90;;;;;;5106571;28;20020;-89
2023/11/12 05:09:30;;;;;;;16.98;12.27;;;8.70;99.90;;;;;;5085383;28;20039;-88
2023/11/12 05:11:58;;;;;;;17.30;12.60;;;8.80;99.90;;;;;;5095842;28;20106;-87
2023/11/12 05:14:24;;;;;;;15.05;12.00;;;8.80;99.90;;;;;;5078384;28;20024;-88
2023/11/12 05:16:50;;;;;;;16.45;13.60;;;8.70;99.90;;;;;;5095406;28;20116;-89
2023/11/12 05:19:16;;;;;;;17.67;13.35;;;8.70;99.90;;;;;;5095890;28;20040;-88
2023/11/12 05:21:48;;;;;;;16.33;12.70;;;8.80;99.90;;;;;;5077694;28;20036;-88
2023/11/12 05:24:16;;;;;;;18.15;13.50;;;8.80;99.90;;;;;;5083615;28;20028;-90
2023/11/12 05:26:42;;;;;;;14.77;12.75;;;8.70;99.90;;;;;;5094644;28;20502;-90
2023/11/12 05:29:10;;;;;;;16.75;13.07;;;8.70;99.90;;;;;;5094638;28;20031;-88
2023/11/12 05:31:36;;;;;;;14.70;12.38;;;8.70;99.90;;;;;;5077777;28;20032;-89
2023/11/12 05:34:02;;;;;;;14.25;12.60;;;8.70;99.90;;;;;;5094512;28;20016;-88
2023/11/12 05:36:28;;;;;;;16.73;12.95;;;8.70;99.90;;;;;;5094336;28;20036;-90
2023/11/12 05:38:54;;;;;;;18.52;13.70;;;8.70;99.90;;;;;;5077829;28;20024;-89
2023/11/12 05:41:20;;;;;;;15.85;12.20;;;8.70;99.90;;;;;;5090567;28;20024;-88
2023/11/12 05:43:46;;;;;;;16.63;12.32;;;8.70;99.90;;;;;;5075388;28;20027;-89
2023/11/12 05:46:12;;;;;;;16.52;13.13;;;8.70;99.90;;;;;;5075100;28;20033;-88
2023/11/12 05:48:38;;;;;;;15.68;12.35;;;8.70;99.90;;;;;;5073798;28;20517;-88
2023/11/12 05:51:05;;;;;;;16.08;12.63;;;8.70;99.90;;;;;;5057662;28;20025;-88
2023/11/12 05:53:31;;;;;;;19.38;12.90;;;8.70;99.90;;;;;;5095494;28;20157;-87
2023/11/12 05:55:57;;;;;;;17.10;11.95;;;8.70;99.90;;;;;;5065567;28;20529;-89
2023/11/12 05:58:23;;;;;;;18.35;13.18;;;8.70;99.90;;;;;;5064822;28;20115;-88
2023/11/12 06:00:49;;;;;;;15.05;11.93;;;8.70;99.90;;;;;;5082645;28;20024;-89
2023/11/12 06:03:14;;;;;;;15.02;12.02;;;8.70;99.90;;;;;;5077200;28;20081;-88
2023/11/12 06:05:40;;;;;;;18.95;12.63;;;8.70;99.90;;;;;;5093845;28;20020;-88
2023/11/12 06:08:06;;;;;;;15.73;11.88;;;8.70;99.90;;;;;;5091350;28;20110;-89
2023/11/12 06:10:32;;;;;;;15.05;12.13;;;8.70;99.90;;;;;;5091557;28;20032;-89
2023/11/12 06:12:58;;;;;;;16.63;12.02;;;8.70;99.90;;;;;;5095034;28;20460;-89
2023/11/12 06:15:27;;;;;;;16.40;12.55;;;8.60;99.90;;;;;;5076757;28;20093;-88
2023/11/12 06:17:55;;;;;;;14.57;11.85;;;8.60;99.90;;;;;;5077581;28;20465;-88
2023/11/12 06:20:26;;;;;;;15.68;11.90;;;8.60;99.90;;;;;;5092980;28;20167;-88
2023/11/12 06:22:51;;;;;;;15.70;11.88;;;8.60;99.90;;;;;;5073626;28;20483;-90
2023/11/12 06:25:17;;;;;;;15.20;11.90;;;8.50;99.90;;;;;;5083835;28;20111;-88
2023/11/12 06:27:43;;;;;;;16.00;11.57;;;8.40;99.90;;;;;;5059174;28;20025;-89
2023/11/12 06:30:12;;;;;;;14.95;11.68;;;8.40;99.90;;;;;;5086230;28;20046;-88
2023/11/12 06:32:38;;;;;;;14.20;10.82;;;8.40;99.90;;;;;;5097508;28;20092;-88
2023/11/12 06:35:04;;;;;;;14.18;11.65;;;8.40;99.90;;;;;;5114362;28;20032;-88
2023/11/12 06:37:30;;;;;;;15.93;11.80;;;8.30;99.90;;;;;;5118511;28;20065;-88
2023/11/12 06:39:59;;;;;;;17.58;11.30;;;8.30;99.90;;;;;;5116353;28;20012;-87
2023/11/12 06:42:25;;;;;;;15.50;11.48;;;8.30;99.90;;;;;;5088901;28;20028;-89
2023/11/12 06:44:51;;;;;;;14.05;10.80;;;8.20;99.90;;;;;;5077156;28;20028;-88
2023/11/12 06:47:18;;;;;;;14.98;11.30;;;8.20;99.90;;;;;;5093389;28;20090;-89
2023/11/12 06:49:46;;;;;;;16.15;11.20;;;8.20;99.90;;;;;;5094417;28;20040;-88
2023/11/12 06:52:12;;;;;;;13.23;11.55;;;8.10;99.90;;;;;;5077534;28;20078;-89
2023/11/12 06:54:40;;;;;;;15.20;11.63;;;8.10;99.90;;;;;;5071960;28;20539;-89
2023/11/12 06:57:06;;;;;;;15.35;11.90;;;8.00;99.90;;;;;;5076905;28;20032;-89
2023/11/12 06:59:32;;;;;;;16.10;11.38;;;7.90;99.90;;;;;;5091341;28;20035;-89
2023/11/12 07:01:57;;;;;;;14.68;11.68;;;7.90;99.90;;;;;;5093684;28;20057;-89
2023/11/12 07:04:23;;;;;;;15.18;11.38;;;7.90;99.90;;;;;;5076314;28;20024;-89
2023/11/12 07:06:52;;;;;;;14.45;11.38;;;7.90;99.90;;;;;;5076286;28;20028;-89
2023/11/12 07:09:18;;;;;;;15.60;11.60;;;7.90;99.90;;;;;;5091462;28;20487;-90
2023/11/12 07:11:46;;;;;;;14.70;10.93;;;7.90;99.90;;;;;;5076774;28;20035;-89
2023/11/12 07:14:12;;;;;;;15.43;11.40;;;7.80;99.90;;;;;;5094229;28;20028;-88
2023/11/12 07:16:38;;;;;;;11.68;10.45;;;7.80;99.90;;;;;;5083098;28;20025;-89
2023/11/12 07:19:04;;;;;;;15.10;11.05;;;7.80;99.90;;;;;;5082827;28;20027;-89
2023/11/12 07:21:31;;;;;;;13.80;10.95;;;7.80;99.90;;;;;;5076263;28;20111;-88
2023/11/12 07:23:57;;;;;;;15.10;11.52;;;7.80;99.90;;;;;;5090308;28;20023;-88
2023/11/12 07:26:24;;;;;;;15.93;11.38;;;7.80;99.90;;;;;;5094201;28;20039;-89
2023/11/12 07:28:50;;;;;;;15.23;11.95;;;7.80;99.90;;;;;;5092788;28;20060;-89
2023/11/12 07:31:21;;;;;;;17.02;12.07;;;7.80;99.90;;;;;;5077554;28;20051;-88
2023/11/12 07:33:47;;;;;;;14.98;11.35;;;7.80;99.90;;;;;;5080944;28;20517;-89
2023/11/12 07:36:13;;;;;;;17.25;12.27;;;7.80;99.90;;;;;;5096738;28;20032;-89
2023/11/12 07:38:40;;;;;;;13.63;11.07;;;7.80;99.90;;;;;;5096681;28;20028;-89
2023/11/12 07:41:07;;;;;;;15.60;12.07;;;7.80;99.90;;;;;;5095163;28;20089;-89
2023/11/12 07:43:37;;;;;;;17.52;11.65;;;7.80;99.90;;;;;;5080249;28;20024;-89
2023/11/12 07:46:03;;;;;;;18.08;12.05;;;7.80;99.90;;;;;;5097061;28;20467;-88
2023/11/12 07:48:33;;;;;;;14.80;11.60;;;7.80;99.90;;;;;;5086521;28;20056;-88
2023/11/12 07:51:00;;;;;;;16.58;12.43;;;7.90;99.90;;;;;;5077717;28;20025;-89
2023/11/12 07:53:26;;;;;;;14.13;12.05;;;7.90;99.90;;;;;;5077622;28;20108;-88
2023/11/12 07:55:52;;;;;;;18.30;12.45;;;7.90;99.90;;;;;;5095911;28;20036;-88
2023/11/12 07:58:22;;;;;;;16.60;12.05;;;7.90;99.90;;;;;;5118557;28;20095;-89
2023/11/12 08:00:50;;;;;;;18.40;12.95;;;7.90;99.90;;;;;;5118761;28;20057;-89
2023/11/12 08:03:18;;;;;;;15.57;12.27;;;8.00;99.90;;;;;;5102529;28;20028;-88
2023/11/12 08:05:45;;;;;;;14.73;11.43;;;8.00;99.90;;;;;;5111261;28;20034;-88
2023/11/12 08:08:10;;;;;;;16.42;12.57;;;8.00;99.90;;;;;;5096775;28;20031;-89
2023/11/12 08:10:39;;;;;;;15.07;11.18;;;8.10;99.90;;;;;;5098981;28;20024;-90
2023/11/12 08:13:04;;;;;;;18.15;12.13;;;8.10;99.90;;;;;;5080810;28;20032;-88
2023/11/12 08:15:30;;;;;;;15.98;12.23;;;8.10;99.90;;;;;;5079647;28;20111;-89
2023/11/12 08:17:56;;;;;;;15.07;12.40;;;8.20;99.90;;;;;;5096244;28;20456;-89
2023/11/12 08:20:22;;;;;;;16.75;12.38;;;8.20;99.90;;;;;;5096591;28;20027;-89
2023/11/12 08:22:47;;;;;;;17.52;12.02;;;8.30;99.90;;;;;;5079199;28;20130;-89
2023/11/12 08:25:13;;;;;;;14.68;11.27;;;8.30;99.90;;;;;;5079588;28;20385;-90
2023/11/12 08:27:42;;;;;;;15.85;11.25;;;8.30;99.90;;;;;;5082190;28;20025;-89
2023/11/12 08:30:08;;;;;;;17.08;12.40;;;8.30;99.90;;;;;;5075262;28;20023;-89
2023/11/12 08:32:35;;;;;;;15.63;11.63;;;8.40;99.90;;;;;;5081200;28;20107;-89
2023/11/12 08:35:01;;;;;;;17.42;12.20;;;8.40;99.90;;;;;;5079055;28;20422;-88
2023/11/12 08:37:29;;;;;;;15.75;12.10;;;8.40;99.90;;;;;;5078708;28;20036;-89
2023/11/12 08:39:55;;;;;;;13.88;11.55;;;8.50;99.90;;;;;;5079884;28;20035;-88
2023/11/12 08:42:23;;;;;;;16.10;12.13;;;8.50;99.90;;;;;;5076210;28;20028;-89
2023/11/12 08:44:48;;;;;;;14.35;11.35;;;8.50;99.90;;;;;;5086856;28;20031;-88
2023/11/12 08:47:14;;;;;;;15.95;12.07;;;8.60;99.90;;;;;;5096667;28;20107;-90
2023/11/12 08:49:42;;;;;;;15.40;12.18;;;8.70;99.90;;;;;;5061698;28;20032;-88
2023/11/12 08:52:11;;;;;;;16.60;12.70;;;8.70;99.90;;;;;;5078045;28;20135;-89
2023/11/12 08:54:37;;;;;;;18.60;12.43;;;8.70;99.90;;;;;;5078986;28;20048;-88
2023/11/12 08:57:04;;;;;;;15.82;12.30;;;8.80;99.90;;;;;;5093751;28;20134;-89
2023/11/12 08:59:29;;;;;;;16.77;11.23;;;8.80;99.90;;;;;;5076727;28;20074;-88
2023/11/12 09:01:55;;;;;;;14.70;11.35;;;8.90;99.90;;;;;;5081414;28;20020;-90
2023/11/12 09:04:23;;;;;;;16.63;11.88;;;8.90;99.90;;;;;;5074310;28;20035;-89
2023/11/12 09:06:52;;;;;;;16.92;11.57;;;8.90;99.90;;;;;;5095266;28;20045;-89
2023/11/12 09:09:17;;;;;;;14.68;11.57;;;9.00;99.90;;;;;;5092995;28;20020;-89
2023/11/12 09:11:43;;;;;;;14.18;11.23;;;9.00;99.90;;;;;;5095036;28;20084;-88
2023/11/12 09:14:15;;;;;;;13.88;11.73;;;9.00;99.90;;;;;;5096038;28;20020;-88
2023/11/12 09:16:44;;;;;;;15.75;11.18;;;9.10;99.90;;;;;;5079040;28;20036;-90
2023/11/12 09:19:10;;;;;;;14.95;11.50;;;9.10;99.90;;;;;;5085293;28;20020;-89
2023/11/12 09:21:36;;;;;;;14.45;10.68;;;9.20;99.90;;;;;;5058542;28;20131;-89
2023/11/12 09:24:02;;;;;;;13.75;10.93;;;9.20;99.90;;;;;;5081878;28;20070;-89
2023/11/12 09:26:28;;;;;;;14.48;11.85;;;9.30;99.90;;;;;;5108367;28;20012;-88
2023/11/12 09:28:53;;;;;;;14.15;10.98;;;9.30;99.90;;;;;;5118749;28;20028;-88
2023/11/12 09:31:19;;;;;;;13.90;11.13;;;9.40;99.90;;;;;;5099617;28;20075;-88
2023/11/12 09:33:46;;;;;;;14.40;11.02;;;9.40;99.90;;;;;;5096959;28;20112;-88
2023/11/12 09:36:15;;;;;;;14.10;10.73;;;9.40;99.90;;;;;;5099853;28;20028;-89
2023/11/12 09:38:41;;;;;;;12.45;10.95;;;9.50;99.90;;;;;;5105522;28;20061;-89
2023/11/12 09:41:12;;;;;;;13.65;10.60;;;9.50;99.90;;;;;;5076810;28;20028;-88
2023/11/12 09:43:38;;;;;;;13.02;11.07;;;9.50;99.90;;;;;;5075519;28;20036;-89
2023/11/12 09:46:08;;;;;;;13.40;10.48;;;9.50;99.90;;;;;;5074260;28;20456;-89
2023/11/12 09:48:38;;;;;;;13.15;10.35;;;9.50;99.90;;;;;;5058012;28;20024;-89
2023/11/12 09:51:05;;;;;;;12.73;9.57;;;9.60;99.90;;;;;;5073861;28;20036;-88
2023/11/12 09:53:42;;;;;;;13.57;9.50;;;9.60;99.90;;;;;;5073590;28;20013;-89
2023/11/12 09:56:08;;;;;;;11.63;9.32;;;9.60;99.90;;;;;;5082241;28;20024;-89
2023/11/12 09:58:38;;;;;;;13.10;9.73;;;9.60;99.90;;;;;;5094803;28;20041;-90
2023/11/12 10:01:08;;;;;;;12.77;9.13;;;9.70;99.90;;;;;;5077131;28;20491;-89
2023/11/12 10:03:34;;;;;;;11.18;9.15;;;9.70;99.90;;;;;;5095280;28;20027;-89
2023/11/12 10:06:03;;;;;;;11.05;8.95;;;9.70;99.90;;;;;;5093666;28;20028;-89
2023/11/12 10:08:29;;;;;;;11.60;9.05;;;9.70;99.90;;;;;;5073233;28;20034;-89
2023/11/12 10:11:14;;;;;;;13.55;9.55;;;9.70;99.90;;;;;;5074745;28;20541;-89
2023/11/12 10:13:40;;;;;;;10.65;8.40;;;9.70;99.90;;;;;;5089128;28;20074;-88
2023/11/12 10:16:29;;;;;;;11.68;9.18;;;9.80;99.90;;;;;;5056774;28;20032;-89
2023/11/12 10:19:08;;;;;;;10.68;8.48;;;9.80;99.90;;;;;;5081481;28;20020;-88
2023/11/12 10:21:34;;;;;;;10.13;8.55;;;9.80;99.90;;;;;;5094015;28;20024;-88
2023/11/12 10:24:06;;;;;;;8.98;7.82;;;9.90;99.90;;;;;;5073276;28;20357;-88
2023/11/12 10:26:35;;;;;;;9.20;7.38;;;10.00;99.90;;;;;;5076493;28;20020;-88
2023/11/12 10:29:01;;;;;;;8.07;6.68;;;10.10;99.90;;;;;;5056417;28;20039;-88
2023/11/12 10:31:39;;;;;;;5.57;4.97;;;10.20;99.90;;;;;;5071080;28;20036;-88
2023/11/12 10:34:05;;;;;;;6.00;4.50;;;10.20;99.90;;;;;;5077176;28;20032;-89
2023/11/12 10:36:31;;;;;;;6.07;4.95;;;10.30;99.90;;;;;;5093659;28;20425;-88
2023/11/12 10:39:03;;;;;;;6.78;5.20;;;10.30;99.90;;;;;;5073048;28;20107;-89
2023/11/12 10:41:35;;;;;;;6.18;4.93;;;10.40;99.90;;;;;;5073358;28;20040;-89
2023/11/12 10:44:06;;;;;;;5.95;4.88;;;10.40;99.90;;;;;;5084845;28;20020;-88
2023/11/12 10:46:38;;;;;;;;;;;10.40;99.90;;;;;;5085655;28;20119;-88
2023/11/12 10:49:09;;;;;;;6.57;5.30;;;10.40;99.90;;;;;;5074016;28;19912;-88
2023/11/12 10:51:39;;;;;;;6.85;5.47;;;10.40;99.90;;;;;;5077440;28;20391;-89
2023/11/12 10:54:06;;;;;;;6.57;5.30;;;10.50;99.90;;;;;;5076919;28;20048;-88
2023/11/12 10:56:32;;;;;;;8.10;5.80;;;10.50;99.90;;;;;;5077047;28;20040;-89
2023/11/12 10:59:03;;;;;;;6.22;5.63;;;10.50;99.90;;;;;;5077381;28;20586;-89
2023/11/12 11:01:28;;;;;;;7.18;5.90;;;10.50;99.90;;;;;;5098020;28;20524;-88
2023/11/12 11:03:55;;;;;;;7.95;6.00;;;10.60;99.90;;;;;;5098207;28;20008;-87
2023/11/12 11:06:22;;;;;;;6.40;5.60;;;10.60;99.90;;;;;;5100837;28;20005;-88
2023/11/12 11:08:48;;;;;;;6.60;5.30;;;10.60;99.90;;;;;;5091724;28;20065;-88
2023/11/12 11:11:14;;;;;;;6.55;5.35;;;10.60;99.90;;;;;;5080750;28;20032;-89
2023/11/12 11:13:40;;;;;;;7.13;5.55;;;10.60;99.90;;;;;;5080654;28;20497;-88
2023/11/12 11:16:07;;;;;;;5.82;5.22;;;10.70;99.90;;;;;;5096695;28;20036;-88
2023/11/12 11:18:36;;;;;;;6.88;5.32;;;10.70;99.90;;;;;;5076908;28;20120;-88
2023/11/12 11:21:16;;;;;;;7.78;6.40;;;10.70;99.90;;;;;;5085612;28;20043;-88
2023/11/12 11:23:54;;;;;;;6.90;5.80;;;10.70;99.90;;;;;;5085925;28;20028;-88
2023/11/12 11:26:42;;;;;;;7.18;5.57;;;10.80;99.90;;;;;;5086498;28;20028;-88
2023/11/12 11:29:09;;;;;;;8.13;5.72;;;10.80;99.90;;;;;;5096542;28;20123;-88
2023/11/12 11:31:46;;;;;;;7.47;6.10;;;10.80;99.90;;;;;;5096948;28;20083;-88
2023/11/12 11:34:13;;;;;;;7.55;6.47;;;10.80;99.90;;;;;;5082167;28;20028;-87
2023/11/12 11:36:42;;;;;;;7.30;6.00;;;10.80;99.90;;;;;;5083927;28;20041;-88
2023/11/12 11:39:12;;;;;;;6.53;5.60;;;10.80;99.90;;;;;;5078660;28;20495;-88
2023/11/12 11:41:50;;;;;;;7.82;6.32;;;10.90;99.90;;;;;;5097728;28;20024;-89
2023/11/12 11:44:31;;;;;;;6.35;5.50;;;10.90;99.90;;;;;;5096752;28;20463;-87
2023/11/12 11:47:05;;;;;;;;;;;10.90;99.90;;;;;;5097582;28;20547;-87
2023/11/12 11:49:30;;;;;;;7.43;6.00;;;10.90;99.90;;;;;;5097002;28;19957;-88
2023/11/12 11:52:00;;;;;;;8.27;6.10;;;10.90;99.90;;;;;;5092984;28;20029;-88
2023/11/12 11:54:26;;;;;;;8.13;6.55;;;11.00;99.90;;;;;;5067204;28;20045;-89
2023/11/12 11:56:52;;;;;;;10.40;6.60;;;11.00;99.90;;;;;;5077712;28;20040;-88
2023/11/12 11:59:19;;;;;;;7.82;6.43;;;11.00;99.90;;;;;;5076166;28;20028;-88
2023/11/12 12:01:48;;;;;;;8.50;6.88;;;11.00;99.90;;;;;;5111336;28;20036;-88
2023/11/12 12:04:15;;;;;;;7.65;6.65;;;11.00;99.90;;;;;;5097162;28;20118;-88
2023/11/12 12:06:45;;;;;;;7.45;6.65;;;11.10;99.90;;;;;;5076042;28;20418;-87
2023/11/12 12:09:20;;;;;;;7.88;6.28;;;11.00;99.90;;;;;;5076039;28;20499;-89
2023/11/12 12:11:52;;;;;;;7.78;6.20;;;11.00;99.90;;;;;;5077030;28;20467;-88
2023/11/12 12:14:20;;;;;;;7.47;6.70;;;11.10;99.90;;;;;;5083521;28;20035;-88
2023/11/12 12:16:46;;;;;;;7.20;6.50;;;11.10;99.90;;;;;;5096249;28;20384;-88
2023/11/12 12:19:18;;;;;;;8.63;6.75;;;11.10;99.90;;;;;;5095584;28;20066;-89
2023/11/12 12:21:49;;;;;;;8.70;5.93;;;11.10;99.90;;;;;;5097429;28;20079;-88
2023/11/12 12:24:16;;;;;;;7.93;6.95;;;11.10;99.90;;;;;;5095995;28;20020;-88
2023/11/12 12:26:43;;;;;;;8.50;6.65;;;11.10;99.90;;;;;;5096313;28;20459;-89
2023/11/12 12:29:23;;;;;;;7.43;5.75;;;11.20;99.90;;;;;;5076533;28;20059;-88
2023/11/12 12:31:50;;;;;;;7.55;5.88;;;11.20;99.90;;;;;;5101428;28;20035;-87
2023/11/12 12:34:17;;;;;;;8.38;6.50;;;11.20;99.90;;;;;;5110180;28;20021;-87
2023/11/12 12:37:05;;;;;;;8.98;6.30;;;11.20;99.90;;;;;;5097297;28;20020;-88
2023/11/12 12:40:05;;;;;;;9.85;6.55;;;11.20;99.90;;;;;;5119777;28;20075;-88
2023/11/12 12:42:32;;;;;;;9.02;5.82;;;11.20;99.90;;;;;;5090610;28;20031;-89
2023/11/12 12:44:58;;;;;;;7.85;5.90;;;11.10;99.90;;;;;;5061189;28;20116;-87
2023/11/12 12:47:42;;;;;;;8.00;6.00;;;11.10;99.90;;;;;;5091895;28;20025;-88